Myakka City, FL (34251)

3:14 PM EDT on September 27, 2016 (GMT -0400)
Dunson Myakka Grove | | Change Station

Elev 69 ft 27.33 °N, 82.16 °W | Updated 3 minutes ago

Clear
Clear
87.5 °F
Feels Like 98 °F
N
6.0
Wind Variable Wind from WSW
Gusts 10.0 mph

Today
High -- | Low -- °F
--% Chance of Precip.
Yesterday
High -- | Low -- °F
Precip. -- in
Pressure 29.92 in
Visibility 10.0 miles
Clouds Clear
Heat Index 98 °F
Dew Point 76 °F
Humidity 68%
Rainfall 0.00 in
Snow Depth Not available.
7:19 AM 7:18 PM
Waning Crescent, 10% visible
METAR KVNC 271855Z AUTO 25007KT 230V290 10SM CLR 30/23 A2992 RMK AO2 TSNO
Pressure 29.92 in
Visibility 10.0 miles
Clouds Clear
Heat Index 98 °F
Dew Point 76 °F
Humidity 68%
Rainfall 0.00 in
Snow Depth Not available.
7:19 AM 7:18 PM
Waning Crescent, 10% visible
METAR KVNC 271855Z AUTO 25007KT 230V290 10SM CLR 30/23 A2992 RMK AO2 TSNO

10-Day Weather Forecast

Almanac

Astronomy

Sep. 27, 2016 Rise Set
Actual Time
Civil Twilight
Nautical Twilight
Astronomical Twilight
Moon
Length of Visible Light
Length of Day
Tomorrow will be .
, % of the Moon is Illuminated

Today's Extremes

State Highs State Lows

Community

WunderPhotos

Upload Photos

1,942,162 photos uploaded!

WunderBlog® & News

Nearby

Air Quality

  Air Quality AQ Index Pollutant
Not available.

Snow Depth

Station Depth Elevation

Earthquake Activity

City Distance Mag. Time & Date
Minimum magnitude displayed is 2.5.

Coastal Water Temperatures

Place Temperature

Stations

Nearby Weather Stations

Station Location Temp. Windchill Dew Point Humidity Wind Precip. Elev Updated Type
                   

Watches & Warnings

There are currently no watches in effect.